createdAt,value
2023-01-22T00:01:09.331Z,7.53
2023-01-22T00:03:37.163Z,8.13
2023-01-22T00:06:04.937Z,7.67
2023-01-22T00:08:32.656Z,7.43
2023-01-22T00:10:59.800Z,7.30
2023-01-22T00:13:27.961Z,7.07
2023-01-22T00:15:57.773Z,7.80
2023-01-22T00:18:25.038Z,8.13
2023-01-22T00:20:54.237Z,8.20
2023-01-22T00:23:22.074Z,7.27
2023-01-22T00:25:49.087Z,8.03
2023-01-22T00:28:17.030Z,7.37
2023-01-22T00:30:44.187Z,8.17
2023-01-22T00:33:11.718Z,8.03
2023-01-22T00:35:38.809Z,8.40
2023-01-22T00:38:06.367Z,7.60
2023-01-22T00:40:33.354Z,8.30
2023-01-22T00:43:00.166Z,7.27
2023-01-22T00:45:27.130Z,8.00
2023-01-22T00:47:54.104Z,9.27
2023-01-22T00:50:21.122Z,8.13
2023-01-22T00:52:48.000Z,8.53
2023-01-22T00:55:14.994Z,8.10
2023-01-22T00:57:42.816Z,8.43
2023-01-22T01:00:14.879Z,7.63
2023-01-22T01:03:00.466Z,8.23
2023-01-22T01:05:27.678Z,8.17
2023-01-22T01:07:54.567Z,8.10
2023-01-22T01:10:21.933Z,9.00
2023-01-22T01:12:48.872Z,8.40
2023-01-22T01:15:19.620Z,7.80
2023-01-22T01:17:46.583Z,8.70
2023-01-22T01:20:13.613Z,8.20
2023-01-22T01:22:40.562Z,9.10
2023-01-22T01:25:07.649Z,8.37
2023-01-22T01:27:34.541Z,8.90
2023-01-22T01:30:01.468Z,8.30
2023-01-22T01:32:30.223Z,9.33
2023-01-22T01:34:57.231Z,9.70
2023-01-22T01:37:24.118Z,9.03
2023-01-22T01:39:52.689Z,9.17
2023-01-22T01:42:30.728Z,8.50
2023-01-22T01:45:19.410Z,9.27
2023-01-22T01:47:50.329Z,8.93
2023-01-22T01:50:21.688Z,9.40
2023-01-22T01:52:49.350Z,8.50
2023-01-22T01:55:21.791Z,9.07
2023-01-22T01:57:48.791Z,9.17
2023-01-22T02:00:18.393Z,9.50
2023-01-22T02:02:45.677Z,10.07
2023-01-22T02:05:13.219Z,8.80
2023-01-22T02:07:40.730Z,8.80
2023-01-22T02:10:07.938Z,10.27
2023-01-22T02:12:36.722Z,10.27
2023-01-22T02:15:05.356Z,9.80
2023-01-22T02:17:32.842Z,9.57
2023-01-22T02:19:59.799Z,10.27
2023-01-22T02:22:32.789Z,9.57
2023-01-22T02:25:01.015Z,9.03
2023-01-22T02:27:30.403Z,9.40
2023-01-22T02:29:57.308Z,9.43
2023-01-22T02:32:24.205Z,10.67
2023-01-22T02:34:52.718Z,10.07
2023-01-22T02:37:19.711Z,9.70
2023-01-22T02:39:48.082Z,10.13
2023-01-22T02:42:15.564Z,10.20
2023-01-22T02:44:43.480Z,10.23
2023-01-22T02:47:12.313Z,10.80
2023-01-22T02:49:39.231Z,9.73
2023-01-22T02:52:06.525Z,10.33
2023-01-22T02:54:34.516Z,10.57
2023-01-22T02:57:01.433Z,9.03
2023-01-22T02:59:28.995Z,9.77
2023-01-22T03:01:57.366Z,9.97
2023-01-22T03:04:27.360Z,10.37
2023-01-22T03:06:54.458Z,11.40
2023-01-22T03:09:22.604Z,10.43
2023-01-22T03:11:49.477Z,9.33
2023-01-22T03:14:42.764Z,10.10
2023-01-22T03:17:28.395Z,10.20
2023-01-22T03:20:14.441Z,10.43
2023-01-22T03:22:41.440Z,10.00
2023-01-22T03:25:08.431Z,9.47
2023-01-22T03:27:36.951Z,10.83
2023-01-22T03:30:04.734Z,11.27
2023-01-22T03:32:34.551Z,11.33
2023-01-22T03:35:01.987Z,10.60
2023-01-22T03:37:42.203Z,10.60
2023-01-22T03:40:10.321Z,9.40
2023-01-22T03:42:39.838Z,10.33
2023-01-22T03:45:07.499Z,10.23
2023-01-22T03:47:37.225Z,9.67
2023-01-22T03:50:18.051Z,10.30
2023-01-22T03:52:45.777Z,10.97
2023-01-22T03:55:12.646Z,10.43
2023-01-22T03:57:39.585Z,10.50
2023-01-22T04:00:07.864Z,9.77
2023-01-22T04:02:40.007Z,10.53
2023-01-22T04:05:17.188Z,10.53
2023-01-22T04:07:44.632Z,10.83
2023-01-22T04:10:12.640Z,11.13
2023-01-22T04:12:41.308Z,10.13
2023-01-22T04:15:11.354Z,10.20
2023-01-22T04:17:38.879Z,10.60
2023-01-22T04:20:44.609Z,10.27
2023-01-22T04:23:30.347Z,10.10
2023-01-22T04:25:58.248Z,10.77
2023-01-22T04:28:25.489Z,9.20
2023-01-22T04:30:56.067Z,10.87
2023-01-22T04:33:38.172Z,10.37
2023-01-22T04:36:09.921Z,10.97
2023-01-22T04:38:37.441Z,10.40
2023-01-22T04:41:04.576Z,10.23
2023-01-22T04:43:31.534Z,10.63
2023-01-22T04:45:58.471Z,10.97
2023-01-22T04:48:29.727Z,10.57
2023-01-22T04:50:56.706Z,10.13
2023-01-22T04:53:26.731Z,11.13
2023-01-22T04:55:53.649Z,10.93
2023-01-22T04:58:21.208Z,10.20
2023-01-22T05:00:48.276Z,11.70
2023-01-22T05:03:15.371Z,11.40
2023-01-22T05:05:42.395Z,11.87
2023-01-22T05:08:09.382Z,9.30
2023-01-22T05:10:38.191Z,10.77
2023-01-22T05:13:07.627Z,12.23
2023-01-22T05:15:35.772Z,11.37
2023-01-22T05:18:11.823Z,11.65
2023-01-22T05:20:45.308Z,11.80
2023-01-22T05:23:13.226Z,11.67
2023-01-22T05:25:40.156Z,11.90
2023-01-22T05:28:07.099Z,10.57
2023-01-22T05:30:51.211Z,10.83
2023-01-22T05:33:32.678Z,11.20
2023-01-22T05:36:01.124Z,11.23
2023-01-22T05:38:30.600Z,11.30
2023-01-22T05:40:58.296Z,11.17
2023-01-22T05:43:27.897Z,11.43
2023-01-22T05:46:04.118Z,10.20
2023-01-22T05:48:49.553Z,12.37
2023-01-22T05:51:27.213Z,10.27
2023-01-22T05:53:54.272Z,11.90
2023-01-22T05:56:24.668Z,10.20
2023-01-22T05:58:51.759Z,12.40
2023-01-22T06:01:19.139Z,11.70
2023-01-22T06:03:49.994Z,11.00
2023-01-22T06:06:19.534Z,11.53
2023-01-22T06:08:48.444Z,11.60
2023-01-22T06:11:17.454Z,11.43
2023-01-22T06:13:47.407Z,10.70
2023-01-22T06:16:19.071Z,12.33
2023-01-22T06:18:57.923Z,12.13
2023-01-22T06:21:28.028Z,11.53
2023-01-22T06:23:55.635Z,11.67
2023-01-22T06:26:22.723Z,12.37
2023-01-22T06:28:49.625Z,12.57
2023-01-22T06:31:16.743Z,11.80
2023-01-22T06:33:43.926Z,11.60
2023-01-22T06:36:11.002Z,11.07
2023-01-22T06:38:38.020Z,12.47
2023-01-22T06:41:07.362Z,12.07
2023-01-22T06:43:34.938Z,13.20
2023-01-22T06:46:03.431Z,14.47
2023-01-22T06:51:17.319Z,12.57
2023-01-22T06:53:44.324Z,13.33
2023-01-22T06:56:11.889Z,13.17
2023-01-22T06:58:40.037Z,13.63
2023-01-22T07:01:07.194Z,13.00
2023-01-22T07:03:34.213Z,13.23
2023-01-22T07:06:03.805Z,12.00
2023-01-22T07:08:32.631Z,13.70
2023-01-22T07:11:00.323Z,13.70
2023-01-22T07:13:27.302Z,13.97
2023-01-22T07:15:54.476Z,13.47
2023-01-22T07:18:24.035Z,13.33
2023-01-22T07:20:51.303Z,14.70
2023-01-22T07:23:18.785Z,14.43
2023-01-22T07:25:46.355Z,14.30
2023-01-22T07:28:15.178Z,13.70
2023-01-22T07:30:43.508Z,12.13
2023-01-22T07:33:11.432Z,13.87
2023-01-22T07:35:39.478Z,14.67
2023-01-22T07:38:07.918Z,14.33
2023-01-22T07:40:36.298Z,13.27
2023-01-22T07:43:07.146Z,14.43
2023-01-22T07:45:35.224Z,14.57
2023-01-22T07:48:02.863Z,15.20
2023-01-22T07:50:31.942Z,15.40
2023-01-22T07:53:00.798Z,14.13
2023-01-22T07:55:28.239Z,14.67
2023-01-22T07:58:03.839Z,14.27
2023-01-22T08:00:31.893Z,13.90
2023-01-22T08:02:59.016Z,14.17
2023-01-22T08:05:26.379Z,14.73
2023-01-22T08:07:53.461Z,14.50
2023-01-22T08:10:20.793Z,14.90
2023-01-22T08:12:47.920Z,14.47
2023-01-22T08:15:15.200Z,14.23
2023-01-22T08:17:42.917Z,14.87
2023-01-22T08:20:10.857Z,14.10
2023-01-22T08:22:38.064Z,14.03
2023-01-22T08:25:05.351Z,14.60
2023-01-22T08:27:35.129Z,13.90
2023-01-22T08:30:03.287Z,15.03
2023-01-22T08:32:31.424Z,14.73
2023-01-22T08:34:58.337Z,15.10
2023-01-22T08:37:25.424Z,14.90
2023-01-22T08:39:52.482Z,13.53
2023-01-22T08:42:19.427Z,14.93
2023-01-22T08:44:46.364Z,15.77
2023-01-22T08:47:13.419Z,15.67
2023-01-22T08:49:40.425Z,15.57
2023-01-22T08:52:07.299Z,15.43
2023-01-22T08:54:34.555Z,15.53
2023-01-22T08:57:01.692Z,15.00
2023-01-22T08:59:30.732Z,14.00
2023-01-22T09:01:59.796Z,14.47
2023-01-22T09:04:27.175Z,15.93
2023-01-22T09:06:54.596Z,15.20
2023-01-22T09:12:06.310Z,14.70
2023-01-22T09:14:33.175Z,15.23
2023-01-22T09:17:00.362Z,14.90
2023-01-22T09:19:27.277Z,14.10
2023-01-22T09:21:54.080Z,16.43
2023-01-22T09:24:21.003Z,14.87
2023-01-22T09:26:47.897Z,15.63
2023-01-22T09:29:14.961Z,15.80
2023-01-22T09:31:41.888Z,16.47
2023-01-22T09:34:08.838Z,15.53
2023-01-22T09:36:36.030Z,16.33
2023-01-22T09:39:03.001Z,16.73
2023-01-22T09:41:39.035Z,17.93
2023-01-22T09:44:22.724Z,16.02
2023-01-22T09:47:07.001Z,16.73
2023-01-22T09:49:56.358Z,15.10
2023-01-22T09:52:28.602Z,15.37
2023-01-22T09:54:56.122Z,16.27
2023-01-22T09:57:31.504Z,15.93
2023-01-22T09:59:59.478Z,14.77
2023-01-22T10:02:41.896Z,15.63
2023-01-22T10:05:22.437Z,16.00
2023-01-22T10:08:02.700Z,17.33
2023-01-22T10:10:30.626Z,14.93
2023-01-22T10:13:07.140Z,14.97
2023-01-22T10:15:34.172Z,15.55
2023-01-22T10:18:05.907Z,15.13
2023-01-22T10:20:33.758Z,13.63
2023-01-22T10:23:14.540Z,15.17
2023-01-22T10:25:42.992Z,14.90
2023-01-22T10:28:10.569Z,18.10
2023-01-22T10:30:47.428Z,17.80
2023-01-22T10:33:22.736Z,17.07
2023-01-22T10:35:52.571Z,16.27
2023-01-22T10:38:28.026Z,16.77
2023-01-22T10:41:00.348Z,17.70
2023-01-22T10:43:36.367Z,16.30
2023-01-22T10:46:23.583Z,17.00
2023-01-22T10:49:01.302Z,16.90
2023-01-22T10:51:32.767Z,14.83
2023-01-22T10:54:00.806Z,15.90
2023-01-22T10:56:32.441Z,16.03
2023-01-22T10:59:03.407Z,16.63
2023-01-22T11:01:36.785Z,15.27
2023-01-22T11:04:23.416Z,16.00
2023-01-22T11:07:17.728Z,16.10
2023-01-22T11:10:06.934Z,14.60
2023-01-22T11:12:41.621Z,16.43
2023-01-22T11:15:43.493Z,15.17
2023-01-22T11:18:31.935Z,15.23
2023-01-22T11:21:00.894Z,15.10
2023-01-22T11:23:52.534Z,15.37
2023-01-22T11:26:43.132Z,16.70
2023-01-22T11:29:12.859Z,15.20
2023-01-22T11:31:55.573Z,15.03
2023-01-22T11:34:59.999Z,16.10
2023-01-22T11:37:38.271Z,14.33
2023-01-22T11:40:24.843Z,17.43
2023-01-22T11:42:51.645Z,15.32
2023-01-22T11:45:21.312Z,16.20
2023-01-22T11:48:16.243Z,15.03
2023-01-22T11:50:57.562Z,15.30
2023-01-22T11:54:02.987Z,16.17
2023-01-22T11:56:42.637Z,14.70
2023-01-22T11:59:32.382Z,15.40
2023-01-22T12:02:05.361Z,15.10
2023-01-22T12:05:03.264Z,16.00
2023-01-22T12:07:42.813Z,15.57
2023-01-22T12:10:40.621Z,15.17
2023-01-22T12:16:12.726Z,14.67
2023-01-22T12:18:45.702Z,15.50
2023-01-22T12:21:58.478Z,16.33
2023-01-22T12:24:41.530Z,13.77
2023-01-22T12:27:57.596Z,15.90
2023-01-22T12:30:43.250Z,16.53
2023-01-22T12:33:14.820Z,17.07
2023-01-22T12:35:42.653Z,16.00
2023-01-22T12:38:24.858Z,15.73
2023-01-22T12:41:13.390Z,16.53
2023-01-22T12:44:00.354Z,14.70
2023-01-22T12:46:40.448Z,17.50
2023-01-22T12:49:10.259Z,16.40
2023-01-22T12:51:40.196Z,16.10
2023-01-22T12:54:23.191Z,15.70
2023-01-22T12:56:51.947Z,16.13
2023-01-22T12:59:53.971Z,16.43
2023-01-22T13:02:26.770Z,16.10
2023-01-22T13:04:54.750Z,15.43
2023-01-22T13:07:23.675Z,16.57
2023-01-22T13:10:22.001Z,15.03
2023-01-22T13:12:53.265Z,15.03
2023-01-22T13:15:30.888Z,14.60
2023-01-22T13:18:07.808Z,16.27
2023-01-22T13:20:38.399Z,14.00
2023-01-22T13:23:07.706Z,15.93
2023-01-22T13:25:38.033Z,15.40
2023-01-22T13:28:06.129Z,15.67
2023-01-22T13:30:33.520Z,15.93
2023-01-22T13:33:03.342Z,16.63
2023-01-22T13:35:30.431Z,16.67
2023-01-22T13:37:57.288Z,15.97
2023-01-22T13:40:27.257Z,15.93
2023-01-22T13:42:55.972Z,16.60
2023-01-22T13:45:33.652Z,17.87
2023-01-22T13:48:04.057Z,16.50
2023-01-22T13:50:31.728Z,16.83
2023-01-22T13:53:00.856Z,16.27
2023-01-22T13:55:29.294Z,17.53
2023-01-22T13:57:58.814Z,18.23
2023-01-22T14:00:30.870Z,18.73
2023-01-22T14:02:59.336Z,18.83
2023-01-22T14:05:30.087Z,17.70
2023-01-22T14:08:12.854Z,18.90
2023-01-22T14:10:44.262Z,18.43
2023-01-22T14:13:13.470Z,18.37
2023-01-22T14:15:41.173Z,19.50
2023-01-22T14:18:14.305Z,17.07
2023-01-22T14:20:42.719Z,17.50
2023-01-22T14:23:09.620Z,17.50
2023-01-22T14:25:42.117Z,16.87
2023-01-22T14:28:09.264Z,18.20
2023-01-22T14:30:36.529Z,16.70
2023-01-22T14:33:03.807Z,16.30
2023-01-22T14:35:30.783Z,16.90
2023-01-22T14:37:57.834Z,16.90
2023-01-22T14:40:27.007Z,17.37
2023-01-22T14:42:54.213Z,15.40
2023-01-22T14:45:21.250Z,16.30
2023-01-22T14:47:53.253Z,16.07
2023-01-22T14:50:23.723Z,15.37
2023-01-22T14:52:51.581Z,15.73
2023-01-22T14:55:19.495Z,17.00
2023-01-22T14:57:46.590Z,16.40
2023-01-22T15:00:15.860Z,16.40
2023-01-22T15:02:42.959Z,17.20
2023-01-22T15:05:10.711Z,16.23
2023-01-22T15:07:38.196Z,17.33
2023-01-22T15:10:07.482Z,16.87
2023-01-22T15:12:34.631Z,15.83
2023-01-22T15:15:01.645Z,16.13
2023-01-22T15:17:30.499Z,17.83
2023-01-22T15:19:57.416Z,16.73
2023-01-22T15:22:24.392Z,16.10
2023-01-22T15:24:51.309Z,16.20
2023-01-22T15:27:18.892Z,14.60
2023-01-22T15:29:46.498Z,16.20
2023-01-22T15:32:13.964Z,16.97
2023-01-22T15:34:41.330Z,17.27
2023-01-22T15:37:08.721Z,18.20
2023-01-22T15:39:35.669Z,17.27
2023-01-22T15:42:02.760Z,16.70
2023-01-22T15:44:29.721Z,18.20
2023-01-22T15:46:59.029Z,17.33
2023-01-22T15:49:26.046Z,17.50
2023-01-22T15:51:53.050Z,16.80
2023-01-22T15:54:19.981Z,18.23
2023-01-22T15:56:46.836Z,18.37
2023-01-22T15:59:13.892Z,17.03
2023-01-22T16:01:41.026Z,18.60
2023-01-22T16:04:08.669Z,17.20
2023-01-22T16:06:35.746Z,18.87
2023-01-22T16:09:04.889Z,17.53
2023-01-22T16:11:32.961Z,17.33
2023-01-22T16:14:00.299Z,16.90
2023-01-22T16:16:37.975Z,17.57
2023-01-22T16:19:06.975Z,19.13
2023-01-22T16:21:34.029Z,17.87
2023-01-22T16:24:02.408Z,17.17
2023-01-22T16:26:31.708Z,17.60
2023-01-22T16:29:00.889Z,17.93
2023-01-22T16:31:30.898Z,17.83
2023-01-22T16:34:00.523Z,18.07
2023-01-22T16:36:29.853Z,16.67
2023-01-22T16:38:56.756Z,16.77
2023-01-22T16:41:29.238Z,16.27
2023-01-22T16:43:59.449Z,16.93
2023-01-22T16:46:29.860Z,16.93
2023-01-22T16:49:01.987Z,16.63
2023-01-22T16:51:34.659Z,16.77
2023-01-22T16:54:01.648Z,15.60
2023-01-22T16:56:28.621Z,16.07
2023-01-22T16:58:55.614Z,15.30
2023-01-22T17:01:22.552Z,16.00
2023-01-22T17:03:49.636Z,15.83
2023-01-22T17:06:44.259Z,15.97
2023-01-22T17:09:17.452Z,15.47
2023-01-22T17:11:46.951Z,14.60
2023-01-22T17:14:16.674Z,13.90
2023-01-22T17:16:43.614Z,12.90
2023-01-22T17:19:10.664Z,13.57
2023-01-22T17:21:37.504Z,13.43
2023-01-22T17:24:05.121Z,12.50
2023-01-22T17:26:32.146Z,10.93
2023-01-22T17:28:59.131Z,11.87
2023-01-22T17:31:27.033Z,11.30
2023-01-22T17:33:55.653Z,10.30
2023-01-22T17:36:28.463Z,10.10
2023-01-22T17:38:56.933Z,10.73
2023-01-22T17:41:25.968Z,8.20
2023-01-22T17:43:55.368Z,9.23
2023-01-22T17:46:25.412Z,8.97
2023-01-22T17:48:53.090Z,8.43
2023-01-22T17:51:23.442Z,9.43
2023-01-22T17:53:51.731Z,10.13
2023-01-22T17:56:20.095Z,8.97
2023-01-22T17:58:50.506Z,8.83
2023-01-22T18:01:19.674Z,10.53
2023-01-22T18:03:47.512Z,12.43
2023-01-22T18:06:15.096Z,12.03
2023-01-22T18:08:42.647Z,12.37
2023-01-22T18:11:17.940Z,12.50
2023-01-22T18:13:45.137Z,12.80
2023-01-22T18:16:15.988Z,12.47
2023-01-22T18:18:43.716Z,11.93
2023-01-22T18:21:16.607Z,11.83
2023-01-22T18:23:44.109Z,11.83
2023-01-22T18:26:11.333Z,10.80
2023-01-22T18:28:38.632Z,11.47
2023-01-22T18:31:14.321Z,11.67
2023-01-22T18:33:44.503Z,11.37
2023-01-22T18:36:15.874Z,11.33
2023-01-22T18:38:43.947Z,10.57
2023-01-22T18:41:18.966Z,10.83
2023-01-22T18:43:59.750Z,10.50
2023-01-22T18:46:33.660Z,9.50
2023-01-22T18:49:05.134Z,9.47
2023-01-22T18:51:33.185Z,9.43
2023-01-22T18:54:02.556Z,9.63
2023-01-22T18:56:29.431Z,8.87
2023-01-22T18:58:57.939Z,9.53
2023-01-22T19:01:27.541Z,9.87
2023-01-22T19:04:07.089Z,8.33
2023-01-22T19:06:37.355Z,8.43
2023-01-22T19:09:08.727Z,8.90
2023-01-22T19:11:38.878Z,8.87
2023-01-22T19:14:07.366Z,9.10
2023-01-22T19:16:35.127Z,8.40
2023-01-22T19:19:07.514Z,9.07
2023-01-22T19:21:34.473Z,8.97
2023-01-22T19:24:03.175Z,7.90
2023-01-22T19:26:35.331Z,8.20
2023-01-22T19:29:06.055Z,7.93
2023-01-22T19:31:36.406Z,7.70
2023-01-22T19:34:04.616Z,8.37
2023-01-22T19:36:33.646Z,9.53
2023-01-22T19:39:02.429Z,7.03
2023-01-22T19:41:29.733Z,7.93
2023-01-22T19:43:59.192Z,8.00
2023-01-22T19:46:27.443Z,9.40
2023-01-22T19:48:55.325Z,9.70
2023-01-22T19:51:24.664Z,8.93
2023-01-22T19:53:51.702Z,9.33
2023-01-22T19:56:21.199Z,9.70
2023-01-22T19:58:51.714Z,10.30
2023-01-22T20:01:19.062Z,10.73
2023-01-22T20:03:46.353Z,10.53
2023-01-22T20:06:14.917Z,9.40
2023-01-22T20:08:42.728Z,9.90
2023-01-22T20:11:11.663Z,11.00
2023-01-22T20:13:39.135Z,11.40
2023-01-22T20:16:07.222Z,11.50
2023-01-22T20:18:34.765Z,11.57
2023-01-22T20:21:02.980Z,12.70
2023-01-22T20:23:30.388Z,12.90
2023-01-22T20:26:00.012Z,12.80
2023-01-22T20:28:26.960Z,12.97
2023-01-22T20:31:04.411Z,12.07
2023-01-22T20:33:32.687Z,12.27
2023-01-22T20:36:01.937Z,12.27
2023-01-22T20:38:29.453Z,12.57
2023-01-22T20:41:04.633Z,12.90
2023-01-22T20:43:32.499Z,13.30
2023-01-22T20:46:08.480Z,13.13
2023-01-22T20:48:35.964Z,12.70
2023-01-22T20:51:03.634Z,13.27
2023-01-22T20:53:30.895Z,11.43
2023-01-22T20:56:02.826Z,11.77
2023-01-22T20:58:30.223Z,12.87
2023-01-22T21:01:04.640Z,12.93
2023-01-22T21:03:31.933Z,12.70
2023-01-22T21:06:03.022Z,12.90
2023-01-22T21:08:30.122Z,12.47
2023-01-22T21:11:02.598Z,12.20
2023-01-22T21:13:29.780Z,12.50
2023-01-22T21:15:56.948Z,11.73
2023-01-22T21:18:24.063Z,11.23
2023-01-22T21:20:50.887Z,11.87
2023-01-22T21:23:17.854Z,11.67
2023-01-22T21:25:44.753Z,11.20
2023-01-22T21:28:11.689Z,11.23
2023-01-22T21:30:39.402Z,11.27
2023-01-22T21:33:06.524Z,11.17
2023-01-22T21:35:33.418Z,12.20
2023-01-22T21:38:00.333Z,11.47
2023-01-22T21:40:27.251Z,10.83
2023-01-22T21:43:12.883Z,11.27
2023-01-22T21:46:01.100Z,11.90
2023-01-22T21:48:29.387Z,10.57
2023-01-22T21:50:56.320Z,11.87
2023-01-22T21:53:23.338Z,10.83
2023-01-22T21:55:52.256Z,11.73
2023-01-22T21:58:19.987Z,12.23
2023-01-22T22:00:46.952Z,11.03
2023-01-22T22:03:13.903Z,10.73
2023-01-22T22:05:42.241Z,11.77
2023-01-22T22:08:09.517Z,10.67
2023-01-22T22:10:36.504Z,12.00
2023-01-22T22:13:03.884Z,11.50
2023-01-22T22:15:30.740Z,11.50
2023-01-22T22:17:57.675Z,11.33
2023-01-22T22:20:24.569Z,11.87
2023-01-22T22:22:51.448Z,11.97
2023-01-22T22:25:18.403Z,12.43
2023-01-22T22:27:45.295Z,11.90
2023-01-22T22:30:12.881Z,12.73
2023-01-22T22:32:39.800Z,11.07
2023-01-22T22:35:07.167Z,13.63
2023-01-22T22:37:34.333Z,12.37
2023-01-22T22:40:01.265Z,13.43
2023-01-22T22:42:28.280Z,13.70
2023-01-22T22:44:55.194Z,14.03
2023-01-22T22:47:22.060Z,14.07
2023-01-22T22:49:48.973Z,14.10
2023-01-22T22:52:15.862Z,12.83
2023-01-22T22:54:43.048Z,13.33
2023-01-22T22:57:10.096Z,13.07
2023-01-22T22:59:36.946Z,13.37
2023-01-22T23:02:06.129Z,13.43
2023-01-22T23:04:33.686Z,13.03
2023-01-22T23:07:00.639Z,12.70
2023-01-22T23:09:28.490Z,12.77
2023-01-22T23:11:56.258Z,12.37
2023-01-22T23:14:23.460Z,11.43
2023-01-22T23:16:50.675Z,12.50
2023-01-22T23:19:24.566Z,12.37
2023-01-22T23:21:57.734Z,12.47
2023-01-22T23:24:25.796Z,13.03
2023-01-22T23:26:52.724Z,13.10
2023-01-22T23:29:23.113Z,13.60
2023-01-22T23:31:50.972Z,13.47
2023-01-22T23:34:20.885Z,13.63
2023-01-22T23:36:48.805Z,13.47
2023-01-22T23:39:18.905Z,14.97
2023-01-22T23:41:46.417Z,14.90
2023-01-22T23:44:13.441Z,15.80
2023-01-22T23:46:42.014Z,15.03
2023-01-22T23:49:09.870Z,14.43
2023-01-22T23:51:38.312Z,14.90
2023-01-22T23:54:05.210Z,15.10
2023-01-22T23:56:32.231Z,14.77
2023-01-22T23:58:59.464Z,15.00
